Cherrylog, Georgia
Current Conditions -  °F | °C
As of 12:55 PM on Monday 24 Nov 2014 (Local Time) from KDNN Reporting Station
Scattered Clouds Scattered Clouds  
Wind Chill: 70°   Ceiling: Unl
Heat Index: 70°   Visibility: 10mi
Dew Point: 54°   Wind: 9mph
Humidity: 56%   Direction: 200°SSW
Pressure: 29.77"   Gusts: NA
Location:  34.7325°N, 84.425°W
Report Text: KDNN 241755Z AUTO 20008KT 166V226 10SM SCT041 SCT049 SCT055 21/12 A2977 RMK AO2
Loading
Personal Weather Stations






























Interactive Weather Map New forecast layout! Learn more

10-Day Weather Forecast

Advertisements
Track Severe Weather on mobile